sensor_id;sensor_type;location;lat;lon;timestamp;P1;durP1;ratioP1;P2;durP2;ratioP2
9264;SDS011;4669;49.594;10.958;2022-07-03T00:04:48;2.17;;;2.08;;
9264;SDS011;4669;49.594;10.958;2022-07-03T00:09:51;2.78;;;2.22;;
9264;SDS011;4669;49.594;10.958;2022-07-03T00:14:53;2.58;;;2.38;;
9264;SDS011;4669;49.594;10.958;2022-07-03T00:19:55;4.45;;;2.70;;
9264;SDS011;4669;49.594;10.958;2022-07-03T00:25:00;3.00;;;2.70;;
9264;SDS011;4669;49.594;10.958;2022-07-03T00:30:05;2.80;;;2.50;;
9264;SDS011;4669;49.594;10.958;2022-07-03T00:35:08;3.75;;;2.67;;
9264;SDS011;4669;49.594;10.958;2022-07-03T00:40:13;2.80;;;2.50;;
9264;SDS011;4669;49.594;10.958;2022-07-03T00:45:15;2.53;;;2.33;;
9264;SDS011;4669;49.594;10.958;2022-07-03T00:50:22;3.35;;;2.70;;
9264;SDS011;4669;49.594;10.958;2022-07-03T00:55:28;2.60;;;2.40;;
9264;SDS011;4669;49.594;10.958;2022-07-03T01:00:30;2.60;;;2.40;;
9264;SDS011;4669;49.594;10.958;2022-07-03T01:05:36;2.55;;;2.35;;
9264;SDS011;4669;49.594;10.958;2022-07-03T01:10:43;2.60;;;2.40;;
9264;SDS011;4669;49.594;10.958;2022-07-03T01:15:57;2.78;;;2.53;;
9264;SDS011;4669;49.594;10.958;2022-07-03T01:21:06;3.70;;;2.53;;
9264;SDS011;4669;49.594;10.958;2022-07-03T01:26:11;2.70;;;2.50;;
9264;SDS011;4669;49.594;10.958;2022-07-03T01:31:18;2.63;;;2.40;;
9264;SDS011;4669;49.594;10.958;2022-07-03T01:36:21;3.22;;;2.92;;
9264;SDS011;4669;49.594;10.958;2022-07-03T01:41:26;3.47;;;3.10;;
9264;SDS011;4669;49.594;10.958;2022-07-03T01:46:32;3.00;;;2.80;;
9264;SDS011;4669;49.594;10.958;2022-07-03T01:51:34;2.90;;;2.70;;
9264;SDS011;4669;49.594;10.958;2022-07-03T01:56:41;3.67;;;3.05;;
9264;SDS011;4669;49.594;10.958;2022-07-03T02:01:47;3.80;;;2.60;;
9264;SDS011;4669;49.594;10.958;2022-07-03T02:06:54;3.20;;;2.85;;
9264;SDS011;4669;49.594;10.958;2022-07-03T02:12:04;3.80;;;2.50;;
9264;SDS011;4669;49.594;10.958;2022-07-03T02:17:13;3.25;;;2.95;;
9264;SDS011;4669;49.594;10.958;2022-07-03T02:22:18;3.00;;;2.80;;
9264;SDS011;4669;49.594;10.958;2022-07-03T02:27:23;3.88;;;2.72;;
9264;SDS011;4669;49.594;10.958;2022-07-03T02:32:30;2.97;;;2.78;;
9264;SDS011;4669;49.594;10.958;2022-07-03T02:37:38;4.32;;;2.70;;
9264;SDS011;4669;49.594;10.958;2022-07-03T02:42:54;3.30;;;3.00;;
9264;SDS011;4669;49.594;10.958;2022-07-03T02:48:05;5.57;;;3.03;;
9264;SDS011;4669;49.594;10.958;2022-07-03T02:53:15;3.22;;;2.92;;
9264;SDS011;4669;49.594;10.958;2022-07-03T03:03:56;5.13;;;3.42;;
9264;SDS011;4669;49.594;10.958;2022-07-03T03:09:10;3.30;;;3.10;;
9264;SDS011;4669;49.594;10.958;2022-07-03T03:14:21;3.67;;;3.08;;
9264;SDS011;4669;49.594;10.958;2022-07-03T03:19:26;2.90;;;2.70;;
9264;SDS011;4669;49.594;10.958;2022-07-03T03:24:28;7.95;;;5.60;;
9264;SDS011;4669;49.594;10.958;2022-07-03T03:29:33;3.10;;;2.90;;
9264;SDS011;4669;49.594;10.958;2022-07-03T03:34:36;5.70;;;3.20;;
9264;SDS011;4669;49.594;10.958;2022-07-03T03:39:39;3.88;;;2.80;;
9264;SDS011;4669;49.594;10.958;2022-07-03T03:44:42;3.08;;;2.75;;
9264;SDS011;4669;49.594;10.958;2022-07-03T03:49:44;3.65;;;2.88;;
9264;SDS011;4669;49.594;10.958;2022-07-03T03:54:46;2.72;;;2.53;;
9264;SDS011;4669;49.594;10.958;2022-07-03T03:59:50;3.85;;;2.95;;
9264;SDS011;4669;49.594;10.958;2022-07-03T04:04:52;3.00;;;2.78;;
9264;SDS011;4669;49.594;10.958;2022-07-03T04:09:54;2.70;;;2.50;;
9264;SDS011;4669;49.594;10.958;2022-07-03T04:14:59;3.50;;;2.67;;
9264;SDS011;4669;49.594;10.958;2022-07-03T04:20:01;3.28;;;2.35;;
9264;SDS011;4669;49.594;10.958;2022-07-03T04:25:03;3.15;;;2.92;;
9264;SDS011;4669;49.594;10.958;2022-07-03T04:30:07;2.70;;;2.50;;
9264;SDS011;4669;49.594;10.958;2022-07-03T04:35:10;2.50;;;2.30;;
9264;SDS011;4669;49.594;10.958;2022-07-03T04:40:13;2.55;;;2.38;;
9264;SDS011;4669;49.594;10.958;2022-07-03T04:45:16;3.38;;;3.05;;
9264;SDS011;4669;49.594;10.958;2022-07-03T04:50:18;2.80;;;2.58;;
9264;SDS011;4669;49.594;10.958;2022-07-03T04:55:20;2.90;;;2.70;;
9264;SDS011;4669;49.594;10.958;2022-07-03T05:00:24;3.38;;;2.78;;
9264;SDS011;4669;49.594;10.958;2022-07-03T05:05:26;3.22;;;2.85;;
9264;SDS011;4669;49.594;10.958;2022-07-03T05:10:28;3.10;;;2.83;;
9264;SDS011;4669;49.594;10.958;2022-07-03T05:15:32;3.63;;;3.33;;
9264;SDS011;4669;49.594;10.958;2022-07-03T05:20:34;3.10;;;2.80;;
9264;SDS011;4669;49.594;10.958;2022-07-03T05:25:36;4.05;;;2.60;;
9264;SDS011;4669;49.594;10.958;2022-07-03T05:30:39;2.72;;;2.50;;
9264;SDS011;4669;49.594;10.958;2022-07-03T05:35:41;3.08;;;2.75;;
9264;SDS011;4669;49.594;10.958;2022-07-03T05:40:43;4.57;;;3.33;;
9264;SDS011;4669;49.594;10.958;2022-07-03T05:45:46;4.80;;;2.70;;
9264;SDS011;4669;49.594;10.958;2022-07-03T05:50:48;4.85;;;3.30;;
9264;SDS011;4669;49.594;10.958;2022-07-03T05:55:50;3.40;;;3.10;;
9264;SDS011;4669;49.594;10.958;2022-07-03T06:00:54;2.75;;;2.55;;
9264;SDS011;4669;49.594;10.958;2022-07-03T06:05:56;3.45;;;3.15;;
9264;SDS011;4669;49.594;10.958;2022-07-03T06:11:00;3.05;;;2.85;;
9264;SDS011;4669;49.594;10.958;2022-07-03T06:16:04;4.03;;;3.13;;
9264;SDS011;4669;49.594;10.958;2022-07-03T06:21:06;3.50;;;3.20;;
9264;SDS011;4669;49.594;10.958;2022-07-03T06:26:08;3.88;;;2.97;;
9264;SDS011;4669;49.594;10.958;2022-07-03T06:31:12;2.80;;;2.53;;
9264;SDS011;4669;49.594;10.958;2022-07-03T06:36:14;5.22;;;3.30;;
9264;SDS011;4669;49.594;10.958;2022-07-03T06:41:17;3.60;;;2.78;;
9264;SDS011;4669;49.594;10.958;2022-07-03T06:46:20;5.57;;;2.78;;
9264;SDS011;4669;49.594;10.958;2022-07-03T06:51:22;4.20;;;2.70;;
9264;SDS011;4669;49.594;10.958;2022-07-03T06:56:24;2.92;;;2.47;;
9264;SDS011;4669;49.594;10.958;2022-07-03T07:01:27;2.40;;;2.20;;
9264;SDS011;4669;49.594;10.958;2022-07-03T07:06:29;3.17;;;2.35;;
9264;SDS011;4669;49.594;10.958;2022-07-03T07:11:31;2.67;;;2.40;;
9264;SDS011;4669;49.594;10.958;2022-07-03T07:16:35;3.70;;;2.17;;
9264;SDS011;4669;49.594;10.958;2022-07-03T07:21:37;2.13;;;1.92;;
9264;SDS011;4669;49.594;10.958;2022-07-03T07:26:39;2.38;;;1.95;;
9264;SDS011;4669;49.594;10.958;2022-07-03T07:31:42;2.08;;;1.80;;
9264;SDS011;4669;49.594;10.958;2022-07-03T07:36:44;2.28;;;2.08;;
9264;SDS011;4669;49.594;10.958;2022-07-03T07:41:46;3.47;;;2.25;;
9264;SDS011;4669;49.594;10.958;2022-07-03T07:46:50;4.03;;;2.20;;
9264;SDS011;4669;49.594;10.958;2022-07-03T07:51:52;4.82;;;2.17;;
9264;SDS011;4669;49.594;10.958;2022-07-03T07:56:54;1.73;;;1.63;;
9264;SDS011;4669;49.594;10.958;2022-07-03T08:01:57;3.72;;;1.83;;
9264;SDS011;4669;49.594;10.958;2022-07-03T08:07:17;2.47;;;1.80;;
9264;SDS011;4669;49.594;10.958;2022-07-03T08:12:19;2.30;;;1.90;;
9264;SDS011;4669;49.594;10.958;2022-07-03T08:17:22;3.25;;;1.65;;
9264;SDS011;4669;49.594;10.958;2022-07-03T08:22:24;2.00;;;1.85;;
9264;SDS011;4669;49.594;10.958;2022-07-03T08:27:26;3.95;;;1.92;;
9264;SDS011;4669;49.594;10.958;2022-07-03T08:32:30;1.73;;;1.50;;
9264;SDS011;4669;49.594;10.958;2022-07-03T08:37:32;1.85;;;1.60;;
9264;SDS011;4669;49.594;10.958;2022-07-03T08:42:35;2.10;;;1.67;;
9264;SDS011;4669;49.594;10.958;2022-07-03T08:47:41;1.67;;;1.58;;
9264;SDS011;4669;49.594;10.958;2022-07-03T08:52:45;2.20;;;1.40;;
9264;SDS011;4669;49.594;10.958;2022-07-03T08:57:48;1.67;;;1.58;;
9264;SDS011;4669;49.594;10.958;2022-07-03T09:02:52;2.58;;;2.00;;
9264;SDS011;4669;49.594;10.958;2022-07-03T09:07:55;1.27;;;1.17;;
9264;SDS011;4669;49.594;10.958;2022-07-03T09:13:00;1.30;;;1.00;;
9264;SDS011;4669;49.594;10.958;2022-07-03T09:18:05;2.38;;;1.17;;
9264;SDS011;4669;49.594;10.958;2022-07-03T09:23:09;1.08;;;1.08;;
9264;SDS011;4669;49.594;10.958;2022-07-03T09:28:12;1.20;;;1.20;;
9264;SDS011;4669;49.594;10.958;2022-07-03T09:33:20;0.90;;;0.90;;
9264;SDS011;4669;49.594;10.958;2022-07-03T09:38:22;0.98;;;0.98;;
9264;SDS011;4669;49.594;10.958;2022-07-03T09:43:25;2.13;;;1.00;;
9264;SDS011;4669;49.594;10.958;2022-07-03T09:48:31;3.40;;;1.17;;
9264;SDS011;4669;49.594;10.958;2022-07-03T09:53:42;1.05;;;1.05;;
9264;SDS011;4669;49.594;10.958;2022-07-03T09:59:00;1.30;;;1.20;;
9264;SDS011;4669;49.594;10.958;2022-07-03T10:04:20;1.38;;;0.98;;
9264;SDS011;4669;49.594;10.958;2022-07-03T10:09:24;2.63;;;1.00;;
9264;SDS011;4669;49.594;10.958;2022-07-03T10:14:29;2.88;;;1.05;;
9264;SDS011;4669;49.594;10.958;2022-07-03T10:19:37;0.90;;;0.90;;
9264;SDS011;4669;49.594;10.958;2022-07-03T10:24:40;1.30;;;1.08;;
9264;SDS011;4669;49.594;10.958;2022-07-03T10:29:44;0.90;;;0.80;;
9264;SDS011;4669;49.594;10.958;2022-07-03T10:34:50;1.05;;;0.85;;
9264;SDS011;4669;49.594;10.958;2022-07-03T10:39:55;1.65;;;0.60;;
9264;SDS011;4669;49.594;10.958;2022-07-03T10:45:17;0.88;;;0.80;;
9264;SDS011;4669;49.594;10.958;2022-07-03T10:50:21;1.30;;;0.75;;
9264;SDS011;4669;49.594;10.958;2022-07-03T10:55:24;2.92;;;0.77;;
9264;SDS011;4669;49.594;10.958;2022-07-03T11:00:26;1.23;;;0.75;;
9264;SDS011;4669;49.594;10.958;2022-07-03T11:05:37;1.35;;;1.00;;
9264;SDS011;4669;49.594;10.958;2022-07-03T11:10:39;0.90;;;0.88;;
9264;SDS011;4669;49.594;10.958;2022-07-03T11:15:45;1.55;;;0.88;;
9264;SDS011;4669;49.594;10.958;2022-07-03T11:21:02;1.10;;;1.05;;
9264;SDS011;4669;49.594;10.958;2022-07-03T11:26:30;0.80;;;0.80;;
9264;SDS011;4669;49.594;10.958;2022-07-03T11:31:33;1.13;;;0.60;;
9264;SDS011;4669;49.594;10.958;2022-07-03T11:36:36;2.75;;;0.73;;
9264;SDS011;4669;49.594;10.958;2022-07-03T11:41:42;0.80;;;0.73;;
9264;SDS011;4669;49.594;10.958;2022-07-03T11:46:47;1.48;;;0.70;;
9264;SDS011;4669;49.594;10.958;2022-07-03T11:51:55;1.88;;;0.88;;
9264;SDS011;4669;49.594;10.958;2022-07-03T11:56:59;1.27;;;0.90;;
9264;SDS011;4669;49.594;10.958;2022-07-03T12:02:02;4.00;;;0.90;;
9264;SDS011;4669;49.594;10.958;2022-07-03T12:07:06;0.80;;;0.70;;
9264;SDS011;4669;49.594;10.958;2022-07-03T12:12:08;1.27;;;0.80;;
9264;SDS011;4669;49.594;10.958;2022-07-03T12:17:12;0.50;;;0.50;;
9264;SDS011;4669;49.594;10.958;2022-07-03T12:22:23;0.70;;;0.52;;
9264;SDS011;4669;49.594;10.958;2022-07-03T12:27:26;0.80;;;0.80;;
9264;SDS011;4669;49.594;10.958;2022-07-03T12:32:29;0.60;;;0.60;;
9264;SDS011;4669;49.594;10.958;2022-07-03T12:37:33;0.60;;;0.57;;
9264;SDS011;4669;49.594;10.958;2022-07-03T12:42:42;1.75;;;0.95;;
9264;SDS011;4669;49.594;10.958;2022-07-03T12:47:46;0.60;;;0.60;;
9264;SDS011;4669;49.594;10.958;2022-07-03T12:53:00;0.80;;;0.80;;
9264;SDS011;4669;49.594;10.958;2022-07-03T12:58:12;2.60;;;0.75;;
9264;SDS011;4669;49.594;10.958;2022-07-03T13:03:34;0.98;;;0.77;;
9264;SDS011;4669;49.594;10.958;2022-07-03T13:08:38;2.08;;;0.60;;
9264;SDS011;4669;49.594;10.958;2022-07-03T13:13:49;1.17;;;0.55;;
9264;SDS011;4669;49.594;10.958;2022-07-03T13:18:58;0.65;;;0.65;;
9264;SDS011;4669;49.594;10.958;2022-07-03T13:24:02;2.63;;;0.60;;
9264;SDS011;4669;49.594;10.958;2022-07-03T13:29:04;1.90;;;0.50;;
9264;SDS011;4669;49.594;10.958;2022-07-03T13:34:06;0.63;;;0.63;;
9264;SDS011;4669;49.594;10.958;2022-07-03T13:39:10;3.42;;;1.15;;
9264;SDS011;4669;49.594;10.958;2022-07-03T13:44:12;0.68;;;0.52;;
9264;SDS011;4669;49.594;10.958;2022-07-03T13:49:14;0.60;;;0.60;;
9264;SDS011;4669;49.594;10.958;2022-07-03T13:54:17;0.90;;;0.47;;
9264;SDS011;4669;49.594;10.958;2022-07-03T13:59:19;0.70;;;0.60;;
9264;SDS011;4669;49.594;10.958;2022-07-03T14:04:22;1.02;;;0.88;;
9264;SDS011;4669;49.594;10.958;2022-07-03T14:09:25;2.95;;;0.60;;
9264;SDS011;4669;49.594;10.958;2022-07-03T14:14:27;0.50;;;0.50;;
9264;SDS011;4669;49.594;10.958;2022-07-03T14:19:29;0.45;;;0.40;;
9264;SDS011;4669;49.594;10.958;2022-07-03T14:24:33;0.50;;;0.50;;
9264;SDS011;4669;49.594;10.958;2022-07-03T14:29:35;2.42;;;0.60;;
9264;SDS011;4669;49.594;10.958;2022-07-03T14:34:54;1.50;;;0.68;;
9264;SDS011;4669;49.594;10.958;2022-07-03T14:39:57;0.57;;;0.50;;
9264;SDS011;4669;49.594;10.958;2022-07-03T14:44:59;0.88;;;0.60;;
9264;SDS011;4669;49.594;10.958;2022-07-03T14:50:01;0.65;;;0.65;;
9264;SDS011;4669;49.594;10.958;2022-07-03T14:55:05;2.40;;;0.68;;
9264;SDS011;4669;49.594;10.958;2022-07-03T15:00:09;0.60;;;0.60;;
9264;SDS011;4669;49.594;10.958;2022-07-03T15:05:14;0.85;;;0.63;;
9264;SDS011;4669;49.594;10.958;2022-07-03T15:10:18;0.40;;;0.40;;
9264;SDS011;4669;49.594;10.958;2022-07-03T15:15:21;1.00;;;0.55;;
9264;SDS011;4669;49.594;10.958;2022-07-03T15:20:24;0.80;;;0.70;;
9264;SDS011;4669;49.594;10.958;2022-07-03T15:25:33;0.80;;;0.80;;
9264;SDS011;4669;49.594;10.958;2022-07-03T15:30:37;0.93;;;0.70;;
9264;SDS011;4669;49.594;10.958;2022-07-03T15:35:40;3.05;;;0.70;;
9264;SDS011;4669;49.594;10.958;2022-07-03T15:40:51;0.60;;;0.60;;
9264;SDS011;4669;49.594;10.958;2022-07-03T15:45:55;1.60;;;0.63;;
9264;SDS011;4669;49.594;10.958;2022-07-03T15:51:05;1.02;;;0.60;;
9264;SDS011;4669;49.594;10.958;2022-07-03T15:56:19;1.85;;;0.55;;
9264;SDS011;4669;49.594;10.958;2022-07-03T16:01:27;0.43;;;0.43;;
9264;SDS011;4669;49.594;10.958;2022-07-03T16:06:47;0.68;;;0.60;;
9264;SDS011;4669;49.594;10.958;2022-07-03T16:11:51;0.50;;;0.40;;
9264;SDS011;4669;49.594;10.958;2022-07-03T16:16:53;0.50;;;0.50;;
9264;SDS011;4669;49.594;10.958;2022-07-03T16:21:55;1.00;;;0.90;;
9264;SDS011;4669;49.594;10.958;2022-07-03T16:27:01;0.70;;;0.70;;
9264;SDS011;4669;49.594;10.958;2022-07-03T16:32:04;1.23;;;0.80;;
9264;SDS011;4669;49.594;10.958;2022-07-03T16:37:08;0.40;;;0.40;;
9264;SDS011;4669;49.594;10.958;2022-07-03T16:42:15;0.93;;;0.40;;
9264;SDS011;4669;49.594;10.958;2022-07-03T16:47:18;0.65;;;0.60;;
9264;SDS011;4669;49.594;10.958;2022-07-03T16:52:23;1.35;;;0.55;;
9264;SDS011;4669;49.594;10.958;2022-07-03T16:57:28;0.52;;;0.50;;
9264;SDS011;4669;49.594;10.958;2022-07-03T17:02:31;0.60;;;0.60;;
9264;SDS011;4669;49.594;10.958;2022-07-03T17:07:35;0.70;;;0.70;;
9264;SDS011;4669;49.594;10.958;2022-07-03T17:12:38;3.10;;;0.75;;
9264;SDS011;4669;49.594;10.958;2022-07-03T17:17:43;0.93;;;0.60;;
9264;SDS011;4669;49.594;10.958;2022-07-03T17:22:47;1.63;;;0.68;;
9264;SDS011;4669;49.594;10.958;2022-07-03T17:27:53;0.75;;;0.50;;
9264;SDS011;4669;49.594;10.958;2022-07-03T17:32:59;0.70;;;0.70;;
9264;SDS011;4669;49.594;10.958;2022-07-03T17:38:06;1.55;;;0.60;;
9264;SDS011;4669;49.594;10.958;2022-07-03T17:43:11;1.40;;;0.70;;
9264;SDS011;4669;49.594;10.958;2022-07-03T17:48:14;3.95;;;1.40;;
9264;SDS011;4669;49.594;10.958;2022-07-03T17:53:16;4.35;;;1.60;;
9264;SDS011;4669;49.594;10.958;2022-07-03T17:58:20;1.42;;;0.70;;
9264;SDS011;4669;49.594;10.958;2022-07-03T18:03:22;2.22;;;0.60;;
9264;SDS011;4669;49.594;10.958;2022-07-03T18:08:27;1.13;;;0.73;;
9264;SDS011;4669;49.594;10.958;2022-07-03T18:13:34;0.70;;;0.70;;
9264;SDS011;4669;49.594;10.958;2022-07-03T18:18:41;0.70;;;0.70;;
9264;SDS011;4669;49.594;10.958;2022-07-03T18:23:46;3.35;;;2.25;;
9264;SDS011;4669;49.594;10.958;2022-07-03T18:28:53;2.75;;;1.13;;
9264;SDS011;4669;49.594;10.958;2022-07-03T18:33:57;0.93;;;0.90;;
9264;SDS011;4669;49.594;10.958;2022-07-03T18:38:59;1.85;;;0.70;;
9264;SDS011;4669;49.594;10.958;2022-07-03T18:44:04;0.70;;;0.70;;
9264;SDS011;4669;49.594;10.958;2022-07-03T18:49:07;2.53;;;0.80;;
9264;SDS011;4669;49.594;10.958;2022-07-03T18:54:14;3.88;;;1.25;;
9264;SDS011;4669;49.594;10.958;2022-07-03T18:59:28;3.58;;;1.00;;
9264;SDS011;4669;49.594;10.958;2022-07-03T19:04:41;2.53;;;0.82;;
9264;SDS011;4669;49.594;10.958;2022-07-03T19:09:49;6.65;;;1.25;;
9264;SDS011;4669;49.594;10.958;2022-07-03T19:15:02;1.45;;;1.02;;
9264;SDS011;4669;49.594;10.958;2022-07-03T19:20:04;0.70;;;0.70;;
9264;SDS011;4669;49.594;10.958;2022-07-03T19:25:08;4.05;;;3.05;;
9264;SDS011;4669;49.594;10.958;2022-07-03T19:30:12;3.80;;;3.35;;
9264;SDS011;4669;49.594;10.958;2022-07-03T19:35:15;1.92;;;1.10;;
9264;SDS011;4669;49.594;10.958;2022-07-03T19:40:17;1.15;;;0.85;;
9264;SDS011;4669;49.594;10.958;2022-07-03T19:45:21;1.67;;;0.98;;
9264;SDS011;4669;49.594;10.958;2022-07-03T19:50:25;2.30;;;1.00;;
9264;SDS011;4669;49.594;10.958;2022-07-03T19:55:27;0.82;;;0.80;;
9264;SDS011;4669;49.594;10.958;2022-07-03T20:00:30;1.02;;;0.80;;
9264;SDS011;4669;49.594;10.958;2022-07-03T20:05:32;3.90;;;1.10;;
9264;SDS011;4669;49.594;10.958;2022-07-03T20:10:34;3.20;;;1.00;;
9264;SDS011;4669;49.594;10.958;2022-07-03T20:15:37;0.90;;;0.90;;
9264;SDS011;4669;49.594;10.958;2022-07-03T20:20:40;1.13;;;0.90;;
9264;SDS011;4669;49.594;10.958;2022-07-03T20:25:42;4.07;;;0.95;;
9264;SDS011;4669;49.594;10.958;2022-07-03T20:30:45;1.55;;;0.90;;
9264;SDS011;4669;49.594;10.958;2022-07-03T20:35:47;2.78;;;1.05;;
9264;SDS011;4669;49.594;10.958;2022-07-03T20:40:50;0.90;;;0.90;;
9264;SDS011;4669;49.594;10.958;2022-07-03T20:45:55;0.90;;;0.90;;
9264;SDS011;4669;49.594;10.958;2022-07-03T20:50:57;1.30;;;1.10;;
9264;SDS011;4669;49.594;10.958;2022-07-03T20:56:00;3.17;;;1.13;;
9264;SDS011;4669;49.594;10.958;2022-07-03T21:01:04;2.47;;;1.45;;
9264;SDS011;4669;49.594;10.958;2022-07-03T21:06:06;1.02;;;0.98;;
9264;SDS011;4669;49.594;10.958;2022-07-03T21:11:24;2.28;;;1.33;;
9264;SDS011;4669;49.594;10.958;2022-07-03T21:16:34;2.50;;;1.40;;
9264;SDS011;4669;49.594;10.958;2022-07-03T21:21:37;1.50;;;1.00;;
9264;SDS011;4669;49.594;10.958;2022-07-03T21:26:40;3.83;;;1.63;;
9264;SDS011;4669;49.594;10.958;2022-07-03T21:31:44;2.85;;;1.60;;
9264;SDS011;4669;49.594;10.958;2022-07-03T21:36:47;1.42;;;1.10;;
9264;SDS011;4669;49.594;10.958;2022-07-03T21:41:49;1.20;;;1.10;;
9264;SDS011;4669;49.594;10.958;2022-07-03T21:46:53;1.30;;;1.20;;
9264;SDS011;4669;49.594;10.958;2022-07-03T21:51:55;1.48;;;1.00;;
9264;SDS011;4669;49.594;10.958;2022-07-03T21:56:57;1.13;;;1.02;;
9264;SDS011;4669;49.594;10.958;2022-07-03T22:02:00;2.58;;;1.23;;
9264;SDS011;4669;49.594;10.958;2022-07-03T22:07:02;5.35;;;1.20;;
9264;SDS011;4669;49.594;10.958;2022-07-03T22:12:05;1.55;;;1.10;;
9264;SDS011;4669;49.594;10.958;2022-07-03T22:17:27;3.25;;;1.40;;
9264;SDS011;4669;49.594;10.958;2022-07-03T22:22:30;1.55;;;1.30;;
9264;SDS011;4669;49.594;10.958;2022-07-03T22:27:32;1.63;;;1.23;;
9264;SDS011;4669;49.594;10.958;2022-07-03T22:32:36;1.42;;;1.13;;
9264;SDS011;4669;49.594;10.958;2022-07-03T22:37:40;9.02;;;1.88;;
9264;SDS011;4669;49.594;10.958;2022-07-03T22:42:45;1.50;;;1.40;;
9264;SDS011;4669;49.594;10.958;2022-07-03T22:47:49;1.40;;;1.30;;
9264;SDS011;4669;49.594;10.958;2022-07-03T22:52:51;1.63;;;1.48;;
9264;SDS011;4669;49.594;10.958;2022-07-03T22:57:53;2.55;;;1.60;;
9264;SDS011;4669;49.594;10.958;2022-07-03T23:02:57;1.60;;;1.40;;
9264;SDS011;4669;49.594;10.958;2022-07-03T23:07:58;1.40;;;1.30;;
9264;SDS011;4669;49.594;10.958;2022-07-03T23:13:01;3.38;;;1.90;;
9264;SDS011;4669;49.594;10.958;2022-07-03T23:18:04;2.47;;;1.88;;
9264;SDS011;4669;49.594;10.958;2022-07-03T23:23:06;1.70;;;1.60;;
9264;SDS011;4669;49.594;10.958;2022-07-03T23:28:08;2.25;;;1.65;;
9264;SDS011;4669;49.594;10.958;2022-07-03T23:33:11;3.15;;;1.92;;
9264;SDS011;4669;49.594;10.958;2022-07-03T23:38:13;2.53;;;1.80;;
9264;SDS011;4669;49.594;10.958;2022-07-03T23:43:15;2.78;;;1.75;;
9264;SDS011;4669;49.594;10.958;2022-07-03T23:48:19;2.45;;;1.65;;
9264;SDS011;4669;49.594;10.958;2022-07-03T23:53:38;1.60;;;1.50;;
9264;SDS011;4669;49.594;10.958;2022-07-03T23:58:40;2.38;;;1.75;;
